Location:  
MeteoStar


Sort by weather type Sort by elevation Sort by visibility Sort from west to east north Sort from north to south Alphabetically Sort from strongest wind speed Sort from lowest to highest pressure Sort from highest to lowest dew point temperature Sort coolest temperatures to warmest Sort warm temperatures to coolest
 Metric

Current Observations for United Kingdom sorted from warmest to coolest

Saint Helena Island12:00ZCloudy74 58351014.2ESE 9 741427
Scilly; Saint MaryS11:50ZPartly Cloudy50 3914996.2W 24 43101
Camborne12:00ZMostly Cloudy48 3613994.7W 18 Gusting to 29 41285
Culdrose11:50ZShowers nearby48 347995.3W 18 Gusting to 29 41255
Portglenone12:00ZClear46 4214979W 8 42209
Castlederg12:00ZShowers46 422981.4NW 14 Gusting to 27 40167
Cardinham12:00ZNot Avail.46 3720993WSW 20 Gusting to 33 38656
Kirkwall Airport11:50ZShowers nearby46 3712981.2N 18 3968
London City Airport11:50ZMostly Cloudy46 3425988.1WSW 13 4016
London / Gatwick Airport11:50ZPartly Cloudy46 3625989.2W 14 40203
Plymouth12:00ZNot Avail.46 3510993.5W 20 Gusting to 29 38164
Eglinton / Londonderr11:50ZShowers nearby46 4114980.1NW 16 Gusting to 26 3929
Herstmonceux12:00ZNot Avail.45 3125989.5W 10 40170
Saint Catherines Point11:50ZNot Avail.45 3520991.0W 18 3752
Milford Haven12:00ZNot Avail.45 4020989.5WNW 17 Gusting to 42 38144
Sule Skerry12:00ZNot Avail.45 3711983.2N 20 Gusting to 27 3752
Marham11:50ZMostly Cloudy45 3615986.2WSW 12 3975
Holbeach11:50ZClear45 3720986.1W 13 399
Topcliffe Royal Air Force Base 11:50ZMostly Cloudy45 3625983.2WSW 8 4191
Northolt11:50ZMostly Cloudy45 3230988.2W 12 39124
Mildenhall Royal Air Force Base11:58ZClear45 3725986.5WSW 14 3932
Lakenheath Royal Air Force Base11:45ZLight Drizzle45 3714986.3W 14 Gusting to 19 3932
Benson11:50ZMostly Cloudy45 3225988.3WSW 11 39206
Exeter Airport11:50ZClear45 3645991.2W 14 3998
Cambridge11:50ZMostly Cloudy45 3445987.1W 13 3949
Stornoway11:50ZShowers nearby45 3412985.1NNE 12 3929
Dundee / Riverside11:50ZClear45 365982.1SW 5 4213
Benbecula11:50ZPartly Cloudy45 375986.1NE 15 3819
Sumburgh Cape 11:50ZShowers nearby45 3412979.1N 19 Gusting to 29 3716
Valley11:50ZMostly Cloudy45 3925984.1W 20 373
Tees-Side11:50ZClear45 349982.2W 10 40121
Lydd Airport 11:50ZClear45 3620989.1W 11 399
Southend-On-Sea 11:50ZPartly Cloudy45 3220988.1W 11 3949
London / Heathrow Airport11:50ZPartly Cloudy45 3420989.2W 15 3878
Shoreham Airport11:50ZClear45 3425990.1W 13 396
Jersey Airport11:50ZPartly Cloudy45 3925994.3NW 19 37275
Guernsey Airport11:50ZClear45 3425994.3WNW 18 37334
Alderney / Channel Island11:50ZPartly Cloudy45 3620993.2WNW 17 38232
Bournemouth Airport11:50ZPartly Cloudy45 3420991.1W 16 3836
Cardiff-Wales Airport11:50ZPartly Cloudy45 393989.3W 18 Gusting to 30 37219
Belfast / Aldergrove Airport11:50ZMostly Cloudy45 4314979.3W 12 39265
Isle Of Portland12:00ZNot Avail.44 3420991.9W 21 Gusting to 28 36173
Gravesend-Broadness11:50ZNot Avail.44 3230988.4WSW 15 379
Aberdaron12:00ZNot Avail.44 3920986.5W 24 Gusting to 32 35311
South Uist Range12:00ZNot Avail.44 3419985NE 19 3632
Manston12:00ZNot Avail.44 3525988.7WSW 10 39180
Chivenor12:00ZLight Showers44 359990.7CALM4426
Dunkeswell Aerodrome12:00ZNot Avail.43 3625991.2W 12 37826
Langdon Bay11:50ZNot Avail.43 3730988.7W 7 39383
Donna Nook12:00ZNot Avail.43 3535984.5WSW 11 3726
Bridlington Mrsc12:00ZNot Avail.43 3320983.2WSW 12 3749
Charterhall12:00ZNot Avail.43 3730981.7WSW 8 38367
Strathallan12:00ZNot Avail.43 3425982.4SW 2 43114
Fair Isle12:00ZPartly Cloudy43 3411979.4NNW 19 Gusting to 28 35187
Lerwick12:00ZShowers nearby43 3320978.9N 20 Gusting to 32 34269
Baltasound12:00ZNot Avail.43 3518979.4N 22 Gusting to 31 3449
Cranwell11:50ZClear43 3625985.3W 17 35219
Waddington11:50ZMostly Cloudy43 3425985.3WSW 14 36223
Leconfield11:50ZMostly Cloudy43 3425983.1WSW 10 3719
Linton-On-Ouse11:50ZMostly Cloudy43 3425983.2W 12 3752
Wittering11:50ZMostly Cloudy43 3425985.3WSW 18 35275
Leeming11:50ZClear43 3225982.2W 13 36131
Coningsby Royal Air Force Base11:50ZMostly Cloudy43 3420985.1W 14 3622
Odiham11:50ZMostly Cloudy43 3025989.4W 16 35403
Brize Norton11:50ZMostly Cloudy43 3225988.3WSW 9 38288
Cranfield11:50ZPartly Cloudy43 3645987.3WSW 13 36364
Stansted Airport11:50ZMostly Cloudy43 3445987.3WSW 12 37347
Lossiemouth11:50ZClear43 3245982.2W 13 3642
Boulmer11:50ZPartly Cloudy43 3430981.2W 11 3775
Leuchars11:50ZNot Avail.43 3019981.1NW 5 4039
Tiree11:50ZClear43 3715983.1NE 13 3639
Edinburgh Airport11:50ZClear43 365982.2WNW 6 39134
Aberdeen / Dyce11:50ZLight Showers43 365980.3NW 16 35213
Wick11:50ZClear43 3620981.2NNW 17 35127
Pembrey Sands11:50ZMostly Cloudy43 4113989.1W 24 349
East Midlands11:50ZMostly Cloudy43 349986.3WSW 18 35308
Newcastle 11:50ZClear43 379982.3WNW 12 37265
Humberside11:50ZPartly Cloudy43 3620984.2WSW 11 37101
Farnborough11:50ZClear43 3225989.3W 11 37213
Biggin Hill 11:50ZMostly Cloudy43 3225988.5W 11 37600
Southampton / Weather Centre11:50ZPartly Cloudy43 3220990.1W 8 3829
Yeovilton11:50ZMostly Cloudy43 3412991.2WSW 10 3775
St Athan Royal Air Force Base11:50ZShowers43 372.5988.2NW 9 Gusting to 19 38164
Coventry Airport 11:50ZClear43 366987.3WSW 15 36269
Belfast / Harbour11:50ZLight Rain43 4114979.1SW 9 3816
Glenanne12:00ZRain42 407981WNW 13 Gusting to 29 35528
Lough Fea12:00ZLight Showers42 3920980WNW 21 Gusting to 29 33738
Kenley12:00ZNot Avail.42 3130989.2W 14 35557
Bedford12:00ZNot Avail.42 3330987.2W 13 35278
Trawscoed12:00ZClear42 4013987.4W 9 Gusting to 23 37206
Loftus Samos12:00ZNot Avail.42 3620982.4W 13 35190
Altnaharra12:00ZNot Avail.42 3220983.2NW 8 37265
Aultbea12:00ZNot Avail.42 3120984.9NNE 4 4036
Wainfleet12:00ZNot Avail.42 368985.4WSW 16 349
Aberporth12:00ZClear42 3814988.2W 26 Gusting to 37 32436
Larkhill12:00ZCloudy41 3420990.2WSW 11 Gusting to 21 34433
High Wicombe Hqstc12:00ZNot Avail.41 3220988.5W 8 36669
Church Lawford12:00ZNot Avail.41 3419987.2WSW 11 34351
Pershore12:00ZLight Showers41 3313988.2SW 13 34104
Weybourne12:00ZNot Avail.41 3625985.9WSW 13 3468
Nottingham Weather Centre12:00ZNot Avail.41 3425985.5WSW 12 34383
Keswick12:00ZClear41 3525982.5ESE 3 41265
Aboyne12:00ZNot Avail.41 3125981.9NW 9 35459
Cosford Royal Air Force Base11:50ZLight Rain41 3420987.3SW 10 35272
Middle Wallop11:50ZMostly Cloudy41 3220990.3W 14 33298
Fairford Royal Air Force Base11:58ZClear41 4130989.0W 13 34285
Wattisham11:50ZClear41 3630987.3W 13 34285
Norwich Weather Centre11:50ZMostly Cloudy41 3645986.1W 8 3645
Kinloss11:50ZNot Avail.41 3430982.1W 11 3422
Tain Range11:50ZClear41 N/A25983.1W 14 13
Scatsa / Shetland Island11:50ZShowers nearby41 365979.2N 22 3172
Shawbury11:50ZLight Showers41 3415985.3WSW 12 34249
Isle Of Man / Ronaldsway Airport11:50ZLight Rain41 399982.1W 16 3355
Hawarden11:50ZLight Rain41 3715985.1SSW 9 3532
Walney Island12:00ZClear41 3825983SSW 10 3549
Blackpool Airport11:50ZLight Showers41 3920984.1SW 18 3232
Luton Airport 11:50ZMostly Cloudy41 344987.5W 16 33524
Liverpool Airport 11:50ZLight Showers41 374985.2SSW 8 3685
Bristol / Lulsgate 11:50ZMostly Cloudy41 363989.5WSW 14 33620
Boscombe Down11:50ZMostly Cloudy41 3425990.4W 13 34406
Staverton Private 11:50ZClear41 346988.2WSW 11 3495
Birmingham / Airport11:50ZPartly Cloudy41 366987.3SW 9 35324
Ballypatrick Forest12:00ZShowers40 392.5979.2SW 7 35511
Liscombe12:00ZNot Avail.40 3520990.0W 17 Gusting to 25 311141
Little Rissington12:00ZNot Avail.40 3420988.0WSW 12 33705
Mumbles12:00ZNot Avail.40 3820989.9W 25 Gusting to 41 29114
Shobdon12:00ZNot Avail.40 3613987.2WSW 14 32324
Crosby12:00ZLight Showers40 354984.5SW 16 3226
Capel Curig12:00ZClear40 375985W 22 Gusting to 36 30708
Fylingdales11:50ZNot Avail.40 3420SW 12 33859
Carlisle12:00ZNot Avail.40 3718982.7N 4091
Dundrennan12:00ZNot Avail.40 3714981.2S 10 34374
Machrihanish12:00ZNot Avail.40 3913980.2E 6 3642
Rhyl12:00ZNot Avail.39 3630984.7SW 9 33252
Redesdale12:00ZNot Avail.39 3430982.5WSW 6 35692
Saint Bees Head12:00ZNot Avail.39 367982.2SSW 14 31406
Prestwick Rnas12:00ZLight Showers39 355981.7ESE 5 3585
Prestwick Airport11:50ZLight Rain39 345982.2SE 5 3565
Glasgow Airport11:50ZLight Rain39 375982.1NE 6 3526
Inverness / Dalcross11:50ZClear39 345983.1WSW 9 3329
Leeds And Bradford11:50ZMostly Cloudy39 3625983.6WSW 12 32682
Lyneham12:00ZNot Avail.39 349989.9W 9 33475
Manchester Airport11:50ZPartly Cloudy39 366985.3SW 7 34226
Drumalbin12:00ZNot Avail.38 3330982.2SSE 4 35803
Tulloch Bridge12:00ZShowers nearby38 2830984.2E 6 33777
Bingley12:00ZClear37 3520984SW 14 28859
Spadeadam12:00ZClear37 367982.2W 9 30935
Eskdalemuir12:00ZMostly Cloudy37 3220982.9W 3 37793
Spadeadam11:50ZMostly Cloudy37 369981.9W 9 301066
Carlisle11:50ZShowers nearby37 3620982.2WNW 3 3785
Aviemore12:00ZNot Avail.36 3020983.2SSE 2 36721
Sennybridge12:00ZIce Pellets34 336988.2WSW 16 Gusting to 30 241007
Lake Vyrnwy12:00ZNot Avail.34 3415985.5N 341181
Great Dun Fell12:00ZNot Avail.28 2825WSW 25 Gusting to 31 132778
Aonach Mor11:50ZNot Avail.23 2220NE 13 113707
Cairngorm12:00ZNot Avail.21 2120NNW 19 Gusting to 29 64084

Atlantic
Tropical Watch